sensor_id;sensor_type;location;lat;lon;timestamp;P1;durP1;ratioP1;P2;durP2;ratioP2
10939;SDS011;5522;42.696;23.494;2022-07-23T00:00:11;3.88;;;3.55;;
10939;SDS011;5522;42.696;23.494;2022-07-23T00:02:40;4.70;;;3.30;;
10939;SDS011;5522;42.696;23.494;2022-07-23T00:05:08;3.75;;;3.35;;
10939;SDS011;5522;42.696;23.494;2022-07-23T00:07:36;3.92;;;3.70;;
10939;SDS011;5522;42.696;23.494;2022-07-23T00:10:03;6.30;;;3.60;;
10939;SDS011;5522;42.696;23.494;2022-07-23T00:12:31;5.63;;;3.38;;
10939;SDS011;5522;42.696;23.494;2022-07-23T00:14:58;4.25;;;3.42;;
10939;SDS011;5522;42.696;23.494;2022-07-23T00:17:25;4.43;;;3.25;;
10939;SDS011;5522;42.696;23.494;2022-07-23T00:19:53;8.77;;;3.45;;
10939;SDS011;5522;42.696;23.494;2022-07-23T00:22:20;4.47;;;3.55;;
10939;SDS011;5522;42.696;23.494;2022-07-23T00:24:47;6.32;;;4.03;;
10939;SDS011;5522;42.696;23.494;2022-07-23T00:27:14;3.60;;;3.28;;
10939;SDS011;5522;42.696;23.494;2022-07-23T00:29:41;4.03;;;3.30;;
10939;SDS011;5522;42.696;23.494;2022-07-23T00:32:08;3.75;;;3.22;;
10939;SDS011;5522;42.696;23.494;2022-07-23T00:34:35;6.30;;;3.10;;
10939;SDS011;5522;42.696;23.494;2022-07-23T00:37:03;3.33;;;3.20;;
10939;SDS011;5522;42.696;23.494;2022-07-23T00:39:30;3.95;;;3.45;;
10939;SDS011;5522;42.696;23.494;2022-07-23T00:41:57;3.65;;;3.45;;
10939;SDS011;5522;42.696;23.494;2022-07-23T00:44:25;3.47;;;3.13;;
10939;SDS011;5522;42.696;23.494;2022-07-23T00:46:53;4.47;;;2.90;;
10939;SDS011;5522;42.696;23.494;2022-07-23T00:49:22;3.83;;;3.53;;
10939;SDS011;5522;42.696;23.494;2022-07-23T00:51:51;6.07;;;3.35;;
10939;SDS011;5522;42.696;23.494;2022-07-23T00:54:21;2.95;;;2.75;;
10939;SDS011;5522;42.696;23.494;2022-07-23T00:56:49;3.53;;;3.22;;
10939;SDS011;5522;42.696;23.494;2022-07-23T00:59:16;6.72;;;3.35;;
10939;SDS011;5522;42.696;23.494;2022-07-23T01:06:54;3.65;;;3.22;;
10939;SDS011;5522;42.696;23.494;2022-07-23T01:09:22;4.68;;;3.42;;
10939;SDS011;5522;42.696;23.494;2022-07-23T01:11:49;6.25;;;3.17;;
10939;SDS011;5522;42.696;23.494;2022-07-23T01:14:18;4.65;;;2.83;;
10939;SDS011;5522;42.696;23.494;2022-07-23T01:16:46;3.10;;;2.95;;
10939;SDS011;5522;42.696;23.494;2022-07-23T01:19:14;2.55;;;2.35;;
10939;SDS011;5522;42.696;23.494;2022-07-23T01:21:43;4.13;;;2.53;;
10939;SDS011;5522;42.696;23.494;2022-07-23T01:24:12;6.20;;;2.90;;
10939;SDS011;5522;42.696;23.494;2022-07-23T01:26:41;3.15;;;3.00;;
10939;SDS011;5522;42.696;23.494;2022-07-23T01:29:10;8.48;;;3.10;;
10939;SDS011;5522;42.696;23.494;2022-07-23T01:31:38;3.25;;;2.95;;
10939;SDS011;5522;42.696;23.494;2022-07-23T01:34:05;3.10;;;2.78;;
10939;SDS011;5522;42.696;23.494;2022-07-23T01:36:32;4.50;;;3.50;;
10939;SDS011;5522;42.696;23.494;2022-07-23T01:38:59;3.97;;;3.60;;
10939;SDS011;5522;42.696;23.494;2022-07-23T01:41:27;4.70;;;3.75;;
10939;SDS011;5522;42.696;23.494;2022-07-23T01:43:55;4.03;;;3.42;;
10939;SDS011;5522;42.696;23.494;2022-07-23T01:46:22;3.95;;;3.53;;
10939;SDS011;5522;42.696;23.494;2022-07-23T01:48:49;4.53;;;3.75;;
10939;SDS011;5522;42.696;23.494;2022-07-23T01:51:16;7.10;;;3.42;;
10939;SDS011;5522;42.696;23.494;2022-07-23T01:53:43;3.97;;;3.25;;
10939;SDS011;5522;42.696;23.494;2022-07-23T01:56:10;3.45;;;3.20;;
10939;SDS011;5522;42.696;23.494;2022-07-23T01:58:38;3.67;;;3.33;;
10939;SDS011;5522;42.696;23.494;2022-07-23T02:01:05;5.88;;;3.25;;
10939;SDS011;5522;42.696;23.494;2022-07-23T02:03:32;2.80;;;2.42;;
10939;SDS011;5522;42.696;23.494;2022-07-23T02:05:59;4.43;;;3.20;;
10939;SDS011;5522;42.696;23.494;2022-07-23T02:08:26;6.68;;;3.58;;
10939;SDS011;5522;42.696;23.494;2022-07-23T02:10:53;5.35;;;2.92;;
10939;SDS011;5522;42.696;23.494;2022-07-23T02:13:20;4.10;;;3.55;;
10939;SDS011;5522;42.696;23.494;2022-07-23T02:15:48;7.25;;;3.17;;
10939;SDS011;5522;42.696;23.494;2022-07-23T02:18:15;3.85;;;3.47;;
10939;SDS011;5522;42.696;23.494;2022-07-23T02:20:42;3.30;;;3.00;;
10939;SDS011;5522;42.696;23.494;2022-07-23T02:23:09;5.40;;;3.75;;
10939;SDS011;5522;42.696;23.494;2022-07-23T02:25:36;3.40;;;3.05;;
10939;SDS011;5522;42.696;23.494;2022-07-23T02:28:03;4.10;;;3.55;;
10939;SDS011;5522;42.696;23.494;2022-07-23T02:30:30;4.53;;;2.92;;
10939;SDS011;5522;42.696;23.494;2022-07-23T02:32:59;4.18;;;3.38;;
10939;SDS011;5522;42.696;23.494;2022-07-23T02:35:26;3.88;;;3.50;;
10939;SDS011;5522;42.696;23.494;2022-07-23T02:37:53;5.70;;;3.33;;
10939;SDS011;5522;42.696;23.494;2022-07-23T02:40:19;3.47;;;3.17;;
10939;SDS011;5522;42.696;23.494;2022-07-23T02:42:46;4.38;;;3.45;;
10939;SDS011;5522;42.696;23.494;2022-07-23T02:45:13;3.55;;;3.25;;
10939;SDS011;5522;42.696;23.494;2022-07-23T02:47:40;7.05;;;3.53;;
10939;SDS011;5522;42.696;23.494;2022-07-23T02:50:09;4.07;;;2.88;;
10939;SDS011;5522;42.696;23.494;2022-07-23T02:52:37;19.45;;;3.80;;
10939;SDS011;5522;42.696;23.494;2022-07-23T02:55:05;9.73;;;3.78;;
10939;SDS011;5522;42.696;23.494;2022-07-23T02:57:32;4.50;;;3.97;;
10939;SDS011;5522;42.696;23.494;2022-07-23T02:59:59;3.88;;;3.63;;
10939;SDS011;5522;42.696;23.494;2022-07-23T03:02:26;9.15;;;3.63;;
10939;SDS011;5522;42.696;23.494;2022-07-23T03:04:53;3.63;;;3.45;;
10939;SDS011;5522;42.696;23.494;2022-07-23T03:07:21;3.75;;;2.90;;
10939;SDS011;5522;42.696;23.494;2022-07-23T03:09:48;3.90;;;3.60;;
10939;SDS011;5522;42.696;23.494;2022-07-23T03:12:15;3.90;;;3.55;;
10939;SDS011;5522;42.696;23.494;2022-07-23T03:14:42;4.65;;;3.85;;
10939;SDS011;5522;42.696;23.494;2022-07-23T03:17:09;4.80;;;3.97;;
10939;SDS011;5522;42.696;23.494;2022-07-23T03:19:36;4.15;;;3.72;;
10939;SDS011;5522;42.696;23.494;2022-07-23T03:22:04;9.60;;;3.15;;
10939;SDS011;5522;42.696;23.494;2022-07-23T03:24:32;3.15;;;2.88;;
10939;SDS011;5522;42.696;23.494;2022-07-23T03:27:22;4.22;;;3.65;;
10939;SDS011;5522;42.696;23.494;2022-07-23T03:29:51;3.97;;;3.67;;
10939;SDS011;5522;42.696;23.494;2022-07-23T03:32:19;5.80;;;3.53;;
10939;SDS011;5522;42.696;23.494;2022-07-23T03:34:46;6.10;;;3.60;;
10939;SDS011;5522;42.696;23.494;2022-07-23T03:37:13;6.20;;;3.75;;
10939;SDS011;5522;42.696;23.494;2022-07-23T03:39:41;7.40;;;4.00;;
10939;SDS011;5522;42.696;23.494;2022-07-23T03:42:08;4.43;;;3.60;;
10939;SDS011;5522;42.696;23.494;2022-07-23T03:44:36;7.75;;;4.10;;
10939;SDS011;5522;42.696;23.494;2022-07-23T03:47:03;4.80;;;4.38;;
10939;SDS011;5522;42.696;23.494;2022-07-23T03:49:31;5.53;;;3.63;;
10939;SDS011;5522;42.696;23.494;2022-07-23T03:51:59;7.95;;;3.30;;
10939;SDS011;5522;42.696;23.494;2022-07-23T03:54:26;8.07;;;4.15;;
10939;SDS011;5522;42.696;23.494;2022-07-23T03:56:54;3.75;;;3.45;;
10939;SDS011;5522;42.696;23.494;2022-07-23T03:59:21;3.67;;;3.38;;
10939;SDS011;5522;42.696;23.494;2022-07-23T04:01:48;5.05;;;3.20;;
10939;SDS011;5522;42.696;23.494;2022-07-23T04:04:15;4.63;;;3.10;;
10939;SDS011;5522;42.696;23.494;2022-07-23T04:06:42;4.15;;;3.60;;
10939;SDS011;5522;42.696;23.494;2022-07-23T04:09:09;3.88;;;3.10;;
10939;SDS011;5522;42.696;23.494;2022-07-23T04:11:36;3.10;;;2.90;;
10939;SDS011;5522;42.696;23.494;2022-07-23T04:14:05;3.47;;;3.15;;
10939;SDS011;5522;42.696;23.494;2022-07-23T04:16:32;6.10;;;3.60;;
10939;SDS011;5522;42.696;23.494;2022-07-23T04:18:59;2.58;;;2.38;;
10939;SDS011;5522;42.696;23.494;2022-07-23T04:21:26;3.38;;;3.15;;
10939;SDS011;5522;42.696;23.494;2022-07-23T04:23:53;6.35;;;2.42;;
10939;SDS011;5522;42.696;23.494;2022-07-23T04:26:20;4.70;;;2.30;;
10939;SDS011;5522;42.696;23.494;2022-07-23T04:28:47;2.60;;;2.22;;
10939;SDS011;5522;42.696;23.494;2022-07-23T04:31:15;2.97;;;2.75;;
10939;SDS011;5522;42.696;23.494;2022-07-23T04:33:42;2.47;;;2.08;;
10939;SDS011;5522;42.696;23.494;2022-07-23T04:36:09;5.82;;;2.55;;
10939;SDS011;5522;42.696;23.494;2022-07-23T04:38:36;3.40;;;2.45;;
10939;SDS011;5522;42.696;23.494;2022-07-23T04:41:03;2.13;;;1.92;;
10939;SDS011;5522;42.696;23.494;2022-07-23T04:43:30;5.45;;;2.30;;
10939;SDS011;5522;42.696;23.494;2022-07-23T04:45:57;5.20;;;2.70;;
10939;SDS011;5522;42.696;23.494;2022-07-23T04:48:26;3.88;;;2.58;;
10939;SDS011;5522;42.696;23.494;2022-07-23T04:50:53;6.82;;;4.25;;
10939;SDS011;5522;42.696;23.494;2022-07-23T04:53:19;12.38;;;6.53;;
10939;SDS011;5522;42.696;23.494;2022-07-23T04:55:46;8.38;;;5.15;;
10939;SDS011;5522;42.696;23.494;2022-07-23T04:58:13;9.55;;;6.18;;
10939;SDS011;5522;42.696;23.494;2022-07-23T05:00:40;10.23;;;7.20;;
10939;SDS011;5522;42.696;23.494;2022-07-23T05:03:07;13.32;;;6.85;;
10939;SDS011;5522;42.696;23.494;2022-07-23T05:05:36;9.93;;;5.75;;
10939;SDS011;5522;42.696;23.494;2022-07-23T05:08:03;9.35;;;4.32;;
10939;SDS011;5522;42.696;23.494;2022-07-23T05:10:30;8.35;;;3.15;;
10939;SDS011;5522;42.696;23.494;2022-07-23T05:12:58;3.33;;;2.40;;
10939;SDS011;5522;42.696;23.494;2022-07-23T05:15:25;4.82;;;2.85;;
10939;SDS011;5522;42.696;23.494;2022-07-23T05:17:52;3.80;;;2.97;;
10939;SDS011;5522;42.696;23.494;2022-07-23T05:20:20;7.78;;;2.53;;
10939;SDS011;5522;42.696;23.494;2022-07-23T05:22:48;8.43;;;3.05;;
10939;SDS011;5522;42.696;23.494;2022-07-23T05:25:16;7.07;;;2.80;;
10939;SDS011;5522;42.696;23.494;2022-07-23T05:27:43;9.32;;;2.65;;
10939;SDS011;5522;42.696;23.494;2022-07-23T05:30:10;6.35;;;2.83;;
10939;SDS011;5522;42.696;23.494;2022-07-23T05:32:38;8.63;;;2.47;;
10939;SDS011;5522;42.696;23.494;2022-07-23T05:35:05;6.63;;;2.08;;
10939;SDS011;5522;42.696;23.494;2022-07-23T05:37:33;5.78;;;2.85;;
10939;SDS011;5522;42.696;23.494;2022-07-23T05:40:02;7.15;;;2.70;;
10939;SDS011;5522;42.696;23.494;2022-07-23T05:42:31;11.18;;;2.53;;
10939;SDS011;5522;42.696;23.494;2022-07-23T05:44:58;8.15;;;2.95;;
10939;SDS011;5522;42.696;23.494;2022-07-23T05:47:25;6.43;;;3.17;;
10939;SDS011;5522;42.696;23.494;2022-07-23T05:49:52;10.40;;;3.22;;
10939;SDS011;5522;42.696;23.494;2022-07-23T05:52:19;7.97;;;3.20;;
10939;SDS011;5522;42.696;23.494;2022-07-23T05:54:46;8.82;;;3.28;;
10939;SDS011;5522;42.696;23.494;2022-07-23T05:57:14;5.85;;;3.20;;
10939;SDS011;5522;42.696;23.494;2022-07-23T05:59:43;8.32;;;2.92;;
10939;SDS011;5522;42.696;23.494;2022-07-23T06:02:10;7.30;;;2.85;;
10939;SDS011;5522;42.696;23.494;2022-07-23T06:04:37;9.77;;;2.70;;
10939;SDS011;5522;42.696;23.494;2022-07-23T06:07:04;5.40;;;2.75;;
10939;SDS011;5522;42.696;23.494;2022-07-23T06:09:32;6.95;;;2.90;;
10939;SDS011;5522;42.696;23.494;2022-07-23T06:11:59;7.20;;;3.03;;
10939;SDS011;5522;42.696;23.494;2022-07-23T06:14:27;6.90;;;2.78;;
10939;SDS011;5522;42.696;23.494;2022-07-23T06:16:54;6.10;;;2.97;;
10939;SDS011;5522;42.696;23.494;2022-07-23T06:19:21;6.13;;;2.75;;
10939;SDS011;5522;42.696;23.494;2022-07-23T06:21:48;5.93;;;2.90;;
10939;SDS011;5522;42.696;23.494;2022-07-23T06:24:16;8.27;;;2.75;;
10939;SDS011;5522;42.696;23.494;2022-07-23T06:26:43;3.40;;;1.80;;
10939;SDS011;5522;42.696;23.494;2022-07-23T06:29:10;3.45;;;2.17;;
10939;SDS011;5522;42.696;23.494;2022-07-23T06:31:38;9.00;;;1.98;;
10939;SDS011;5522;42.696;23.494;2022-07-23T06:34:05;4.35;;;2.05;;
10939;SDS011;5522;42.696;23.494;2022-07-23T06:36:32;6.53;;;1.80;;
10939;SDS011;5522;42.696;23.494;2022-07-23T06:38:59;7.90;;;2.28;;
10939;SDS011;5522;42.696;23.494;2022-07-23T06:41:26;5.80;;;1.73;;
10939;SDS011;5522;42.696;23.494;2022-07-23T06:43:53;1.88;;;1.45;;
10939;SDS011;5522;42.696;23.494;2022-07-23T06:46:20;4.50;;;1.80;;
10939;SDS011;5522;42.696;23.494;2022-07-23T06:48:49;9.02;;;1.90;;
10939;SDS011;5522;42.696;23.494;2022-07-23T06:51:16;3.60;;;1.63;;
10939;SDS011;5522;42.696;23.494;2022-07-23T06:53:42;5.72;;;2.08;;
10939;SDS011;5522;42.696;23.494;2022-07-23T06:56:09;4.90;;;1.63;;
10939;SDS011;5522;42.696;23.494;2022-07-23T06:58:36;3.45;;;1.70;;
10939;SDS011;5522;42.696;23.494;2022-07-23T07:01:04;1.90;;;1.80;;
10939;SDS011;5522;42.696;23.494;2022-07-23T07:03:31;3.85;;;1.67;;
10939;SDS011;5522;42.696;23.494;2022-07-23T07:05:59;7.97;;;1.60;;
10939;SDS011;5522;42.696;23.494;2022-07-23T07:08:27;4.20;;;1.80;;
10939;SDS011;5522;42.696;23.494;2022-07-23T07:10:54;4.68;;;1.48;;
10939;SDS011;5522;42.696;23.494;2022-07-23T07:13:21;4.15;;;1.52;;
10939;SDS011;5522;42.696;23.494;2022-07-23T07:15:48;3.50;;;1.27;;
10939;SDS011;5522;42.696;23.494;2022-07-23T07:18:15;1.40;;;1.30;;
10939;SDS011;5522;42.696;23.494;2022-07-23T07:20:42;4.78;;;1.50;;
10939;SDS011;5522;42.696;23.494;2022-07-23T07:23:10;4.03;;;1.48;;
10939;SDS011;5522;42.696;23.494;2022-07-23T07:25:39;2.92;;;1.40;;
10939;SDS011;5522;42.696;23.494;2022-07-23T07:28:06;5.20;;;1.50;;
10939;SDS011;5522;42.696;23.494;2022-07-23T07:30:33;3.25;;;1.20;;
10939;SDS011;5522;42.696;23.494;2022-07-23T07:33:00;6.32;;;1.42;;
10939;SDS011;5522;42.696;23.494;2022-07-23T07:35:27;4.38;;;1.73;;
10939;SDS011;5522;42.696;23.494;2022-07-23T07:37:54;4.75;;;1.23;;
10939;SDS011;5522;42.696;23.494;2022-07-23T07:40:23;5.97;;;1.23;;
10939;SDS011;5522;42.696;23.494;2022-07-23T07:42:50;2.08;;;1.40;;
10939;SDS011;5522;42.696;23.494;2022-07-23T07:45:19;10.32;;;0.95;;
10939;SDS011;5522;42.696;23.494;2022-07-23T07:47:47;2.20;;;1.25;;
10939;SDS011;5522;42.696;23.494;2022-07-23T07:50:14;2.30;;;1.20;;
10939;SDS011;5522;42.696;23.494;2022-07-23T07:52:42;3.35;;;1.27;;
10939;SDS011;5522;42.696;23.494;2022-07-23T07:55:09;1.27;;;1.10;;
10939;SDS011;5522;42.696;23.494;2022-07-23T07:57:38;7.25;;;1.50;;
10939;SDS011;5522;42.696;23.494;2022-07-23T08:00:06;3.30;;;1.65;;
10939;SDS011;5522;42.696;23.494;2022-07-23T08:02:42;5.80;;;1.20;;
10939;SDS011;5522;42.696;23.494;2022-07-23T08:05:10;2.45;;;1.08;;
10939;SDS011;5522;42.696;23.494;2022-07-23T08:07:37;2.70;;;1.27;;
10939;SDS011;5522;42.696;23.494;2022-07-23T08:10:05;2.42;;;1.10;;
10939;SDS011;5522;42.696;23.494;2022-07-23T08:12:42;3.35;;;1.13;;
10939;SDS011;5522;42.696;23.494;2022-07-23T08:15:11;4.97;;;1.67;;
10939;SDS011;5522;42.696;23.494;2022-07-23T08:17:39;8.52;;;1.08;;
10939;SDS011;5522;42.696;23.494;2022-07-23T08:20:07;3.83;;;1.10;;
10939;SDS011;5522;42.696;23.494;2022-07-23T08:22:45;4.55;;;1.40;;
10939;SDS011;5522;42.696;23.494;2022-07-23T08:25:14;4.75;;;1.35;;
10939;SDS011;5522;42.696;23.494;2022-07-23T08:27:43;3.28;;;0.80;;
10939;SDS011;5522;42.696;23.494;2022-07-23T08:30:10;2.88;;;1.85;;
10939;SDS011;5522;42.696;23.494;2022-07-23T08:32:54;2.10;;;1.40;;
10939;SDS011;5522;42.696;23.494;2022-07-23T08:35:23;5.00;;;1.30;;
10939;SDS011;5522;42.696;23.494;2022-07-23T08:37:51;1.90;;;0.98;;
10939;SDS011;5522;42.696;23.494;2022-07-23T08:40:18;4.25;;;1.05;;
10939;SDS011;5522;42.696;23.494;2022-07-23T08:42:48;3.80;;;1.17;;
10939;SDS011;5522;42.696;23.494;2022-07-23T08:45:17;6.22;;;1.27;;
10939;SDS011;5522;42.696;23.494;2022-07-23T08:47:47;3.28;;;0.90;;
10939;SDS011;5522;42.696;23.494;2022-07-23T08:50:16;7.38;;;0.90;;
10939;SDS011;5522;42.696;23.494;2022-07-23T08:52:43;1.67;;;0.93;;
10939;SDS011;5522;42.696;23.494;2022-07-23T08:55:10;3.13;;;1.08;;
10939;SDS011;5522;42.696;23.494;2022-07-23T08:57:38;5.43;;;1.20;;
10939;SDS011;5522;42.696;23.494;2022-07-23T09:00:07;2.38;;;0.80;;
10939;SDS011;5522;42.696;23.494;2022-07-23T09:02:39;5.60;;;0.90;;
10939;SDS011;5522;42.696;23.494;2022-07-23T09:05:08;7.55;;;1.23;;
10939;SDS011;5522;42.696;23.494;2022-07-23T09:07:36;2.05;;;0.98;;
10939;SDS011;5522;42.696;23.494;2022-07-23T09:10:07;10.73;;;1.30;;
10939;SDS011;5522;42.696;23.494;2022-07-23T09:12:36;5.00;;;1.00;;
10939;SDS011;5522;42.696;23.494;2022-07-23T09:15:04;5.65;;;1.00;;
10939;SDS011;5522;42.696;23.494;2022-07-23T09:17:38;3.60;;;0.95;;
10939;SDS011;5522;42.696;23.494;2022-07-23T09:20:07;5.18;;;1.08;;
10939;SDS011;5522;42.696;23.494;2022-07-23T09:22:38;10.82;;;1.50;;
10939;SDS011;5522;42.696;23.494;2022-07-23T09:25:08;7.07;;;1.20;;
10939;SDS011;5522;42.696;23.494;2022-07-23T09:27:47;4.75;;;1.10;;
10939;SDS011;5522;42.696;23.494;2022-07-23T09:30:19;3.47;;;0.90;;
10939;SDS011;5522;42.696;23.494;2022-07-23T09:35:45;5.43;;;1.00;;
10939;SDS011;5522;42.696;23.494;2022-07-23T09:38:13;10.10;;;1.02;;
10939;SDS011;5522;42.696;23.494;2022-07-23T09:40:41;4.93;;;0.93;;
10939;SDS011;5522;42.696;23.494;2022-07-23T09:43:08;4.72;;;0.68;;
10939;SDS011;5522;42.696;23.494;2022-07-23T09:45:36;3.25;;;0.80;;
10939;SDS011;5522;42.696;23.494;2022-07-23T09:48:11;6.10;;;0.93;;
10939;SDS011;5522;42.696;23.494;2022-07-23T09:50:39;11.55;;;0.98;;
10939;SDS011;5522;42.696;23.494;2022-07-23T09:53:07;5.93;;;1.15;;
10939;SDS011;5522;42.696;23.494;2022-07-23T09:55:35;5.35;;;0.85;;
10939;SDS011;5522;42.696;23.494;2022-07-23T09:58:03;9.48;;;0.80;;
10939;SDS011;5522;42.696;23.494;2022-07-23T10:00:32;4.10;;;1.00;;
10939;SDS011;5522;42.696;23.494;2022-07-23T10:03:00;5.53;;;1.00;;
10939;SDS011;5522;42.696;23.494;2022-07-23T10:05:29;7.22;;;1.08;;
10939;SDS011;5522;42.696;23.494;2022-07-23T10:07:57;4.97;;;1.30;;
10939;SDS011;5522;42.696;23.494;2022-07-23T10:10:26;7.05;;;1.10;;
10939;SDS011;5522;42.696;23.494;2022-07-23T10:12:54;6.88;;;0.90;;
10939;SDS011;5522;42.696;23.494;2022-07-23T10:15:39;10.27;;;1.35;;
10939;SDS011;5522;42.696;23.494;2022-07-23T10:18:10;7.82;;;0.80;;
10939;SDS011;5522;42.696;23.494;2022-07-23T10:20:38;3.95;;;1.30;;
10939;SDS011;5522;42.696;23.494;2022-07-23T10:23:08;1.75;;;1.02;;
10939;SDS011;5522;42.696;23.494;2022-07-23T10:25:46;6.63;;;1.20;;
10939;SDS011;5522;42.696;23.494;2022-07-23T10:31:15;9.20;;;2.00;;
10939;SDS011;5522;42.696;23.494;2022-07-23T10:33:54;5.85;;;1.00;;
10939;SDS011;5522;42.696;23.494;2022-07-23T10:36:30;10.55;;;1.00;;
10939;SDS011;5522;42.696;23.494;2022-07-23T10:39:07;5.88;;;0.95;;
10939;SDS011;5522;42.696;23.494;2022-07-23T10:41:39;3.97;;;0.85;;
10939;SDS011;5522;42.696;23.494;2022-07-23T10:44:08;5.20;;;0.98;;
10939;SDS011;5522;42.696;23.494;2022-07-23T10:46:36;4.63;;;1.00;;
10939;SDS011;5522;42.696;23.494;2022-07-23T10:49:27;6.63;;;4.93;;
10939;SDS011;5522;42.696;23.494;2022-07-23T10:54:49;4.63;;;1.35;;
10939;SDS011;5522;42.696;23.494;2022-07-23T10:57:17;4.90;;;1.00;;
10939;SDS011;5522;42.696;23.494;2022-07-23T11:02:48;4.47;;;0.93;;
10939;SDS011;5522;42.696;23.494;2022-07-23T11:05:18;6.57;;;1.20;;
10939;SDS011;5522;42.696;23.494;2022-07-23T11:10:43;7.57;;;1.02;;
10939;SDS011;5522;42.696;23.494;2022-07-23T11:16:05;4.28;;;1.20;;
10939;SDS011;5522;42.696;23.494;2022-07-23T11:24:17;6.10;;;1.00;;
10939;SDS011;5522;42.696;23.494;2022-07-23T11:26:50;3.30;;;1.20;;
10939;SDS011;5522;42.696;23.494;2022-07-23T11:29:38;9.25;;;1.10;;
10939;SDS011;5522;42.696;23.494;2022-07-23T11:32:06;3.70;;;1.02;;
10939;SDS011;5522;42.696;23.494;2022-07-23T11:34:35;8.13;;;1.45;;
10939;SDS011;5522;42.696;23.494;2022-07-23T11:37:08;6.63;;;1.30;;
10939;SDS011;5522;42.696;23.494;2022-07-23T11:39:36;5.38;;;1.92;;
10939;SDS011;5522;42.696;23.494;2022-07-23T11:42:05;5.28;;;1.48;;
10939;SDS011;5522;42.696;23.494;2022-07-23T11:44:33;8.63;;;1.10;;
10939;SDS011;5522;42.696;23.494;2022-07-23T11:47:03;5.55;;;1.13;;
10939;SDS011;5522;42.696;23.494;2022-07-23T11:49:31;6.38;;;1.77;;
10939;SDS011;5522;42.696;23.494;2022-07-23T11:52:04;5.60;;;1.13;;
10939;SDS011;5522;42.696;23.494;2022-07-23T11:54:35;7.13;;;1.20;;
10939;SDS011;5522;42.696;23.494;2022-07-23T11:57:03;4.80;;;1.25;;
10939;SDS011;5522;42.696;23.494;2022-07-23T11:59:31;3.58;;;1.15;;
10939;SDS011;5522;42.696;23.494;2022-07-23T12:02:00;8.35;;;1.33;;
10939;SDS011;5522;42.696;23.494;2022-07-23T12:04:36;5.88;;;1.20;;
10939;SDS011;5522;42.696;23.494;2022-07-23T12:07:04;6.47;;;1.40;;
10939;SDS011;5522;42.696;23.494;2022-07-23T12:09:48;9.60;;;1.05;;
10939;SDS011;5522;42.696;23.494;2022-07-23T12:12:15;2.83;;;1.02;;
10939;SDS011;5522;42.696;23.494;2022-07-23T12:14:47;7.75;;;1.27;;
10939;SDS011;5522;42.696;23.494;2022-07-23T12:17:15;7.80;;;1.55;;
10939;SDS011;5522;42.696;23.494;2022-07-23T12:19:42;4.50;;;1.20;;
10939;SDS011;5522;42.696;23.494;2022-07-23T12:22:11;5.82;;;1.02;;
10939;SDS011;5522;42.696;23.494;2022-07-23T12:24:58;8.00;;;1.75;;
10939;SDS011;5522;42.696;23.494;2022-07-23T12:27:26;7.30;;;1.35;;
10939;SDS011;5522;42.696;23.494;2022-07-23T12:29:54;4.05;;;1.30;;
10939;SDS011;5522;42.696;23.494;2022-07-23T12:32:22;3.65;;;1.30;;
10939;SDS011;5522;42.696;23.494;2022-07-23T12:34:51;6.55;;;1.15;;
10939;SDS011;5522;42.696;23.494;2022-07-23T12:37:31;6.18;;;1.33;;
10939;SDS011;5522;42.696;23.494;2022-07-23T12:39:58;5.38;;;1.38;;
10939;SDS011;5522;42.696;23.494;2022-07-23T12:42:45;10.50;;;1.88;;
10939;SDS011;5522;42.696;23.494;2022-07-23T12:45:12;10.43;;;1.77;;
10939;SDS011;5522;42.696;23.494;2022-07-23T12:47:52;6.78;;;1.92;;
10939;SDS011;5522;42.696;23.494;2022-07-23T12:53:19;8.02;;;1.33;;
10939;SDS011;5522;42.696;23.494;2022-07-23T12:55:48;15.20;;;1.52;;
10939;SDS011;5522;42.696;23.494;2022-07-23T12:58:16;4.60;;;1.30;;
10939;SDS011;5522;42.696;23.494;2022-07-23T13:00:51;9.00;;;1.38;;
10939;SDS011;5522;42.696;23.494;2022-07-23T13:03:23;7.60;;;1.10;;
10939;SDS011;5522;42.696;23.494;2022-07-23T13:05:55;5.22;;;1.02;;
10939;SDS011;5522;42.696;23.494;2022-07-23T13:08:24;6.00;;;1.20;;
10939;SDS011;5522;42.696;23.494;2022-07-23T13:10:52;5.43;;;1.20;;
10939;SDS011;5522;42.696;23.494;2022-07-23T13:13:20;10.25;;;1.35;;
10939;SDS011;5522;42.696;23.494;2022-07-23T13:15:48;6.68;;;1.25;;
10939;SDS011;5522;42.696;23.494;2022-07-23T13:18:16;24.38;;;1.92;;
10939;SDS011;5522;42.696;23.494;2022-07-23T13:20:43;6.05;;;0.90;;
10939;SDS011;5522;42.696;23.494;2022-07-23T13:23:10;8.15;;;1.05;;
10939;SDS011;5522;42.696;23.494;2022-07-23T13:25:39;7.65;;;1.05;;
10939;SDS011;5522;42.696;23.494;2022-07-23T13:28:06;5.85;;;1.20;;
10939;SDS011;5522;42.696;23.494;2022-07-23T13:30:33;7.53;;;1.40;;
10939;SDS011;5522;42.696;23.494;2022-07-23T13:33:01;10.20;;;2.00;;
10939;SDS011;5522;42.696;23.494;2022-07-23T13:35:28;8.73;;;1.35;;
10939;SDS011;5522;42.696;23.494;2022-07-23T13:37:55;3.97;;;1.20;;
10939;SDS011;5522;42.696;23.494;2022-07-23T13:40:21;7.28;;;1.33;;
10939;SDS011;5522;42.696;23.494;2022-07-23T13:42:50;7.82;;;0.77;;
10939;SDS011;5522;42.696;23.494;2022-07-23T13:45:17;8.27;;;1.02;;
10939;SDS011;5522;42.696;23.494;2022-07-23T13:47:44;8.93;;;1.60;;
10939;SDS011;5522;42.696;23.494;2022-07-23T13:50:11;8.45;;;1.40;;
10939;SDS011;5522;42.696;23.494;2022-07-23T13:52:40;7.38;;;1.33;;
10939;SDS011;5522;42.696;23.494;2022-07-23T13:55:07;6.55;;;1.48;;
10939;SDS011;5522;42.696;23.494;2022-07-23T13:57:34;10.73;;;1.10;;
10939;SDS011;5522;42.696;23.494;2022-07-23T14:00:03;6.32;;;1.20;;
10939;SDS011;5522;42.696;23.494;2022-07-23T14:02:32;3.50;;;0.90;;
10939;SDS011;5522;42.696;23.494;2022-07-23T14:04:59;6.88;;;1.35;;
10939;SDS011;5522;42.696;23.494;2022-07-23T14:07:26;4.25;;;1.33;;
10939;SDS011;5522;42.696;23.494;2022-07-23T14:09:54;7.75;;;1.58;;
10939;SDS011;5522;42.696;23.494;2022-07-23T14:12:21;8.38;;;1.15;;
10939;SDS011;5522;42.696;23.494;2022-07-23T14:14:48;7.88;;;1.20;;
10939;SDS011;5522;42.696;23.494;2022-07-23T14:17:16;9.10;;;0.98;;
10939;SDS011;5522;42.696;23.494;2022-07-23T14:19:43;2.83;;;1.33;;
10939;SDS011;5522;42.696;23.494;2022-07-23T14:22:10;8.50;;;1.15;;
10939;SDS011;5522;42.696;23.494;2022-07-23T14:24:37;2.67;;;1.10;;
10939;SDS011;5522;42.696;23.494;2022-07-23T14:27:04;6.82;;;2.00;;
10939;SDS011;5522;42.696;23.494;2022-07-23T14:29:32;6.82;;;1.38;;
10939;SDS011;5522;42.696;23.494;2022-07-23T14:31:59;6.25;;;1.52;;
10939;SDS011;5522;42.696;23.494;2022-07-23T14:34:27;8.77;;;1.63;;
10939;SDS011;5522;42.696;23.494;2022-07-23T14:36:54;16.50;;;1.30;;
10939;SDS011;5522;42.696;23.494;2022-07-23T14:39:21;11.45;;;1.40;;
10939;SDS011;5522;42.696;23.494;2022-07-23T14:41:48;4.57;;;0.95;;
10939;SDS011;5522;42.696;23.494;2022-07-23T14:44:15;3.88;;;1.42;;
10939;SDS011;5522;42.696;23.494;2022-07-23T14:46:42;7.38;;;1.67;;
10939;SDS011;5522;42.696;23.494;2022-07-23T14:49:09;9.90;;;1.33;;
10939;SDS011;5522;42.696;23.494;2022-07-23T14:51:38;5.47;;;1.30;;
10939;SDS011;5522;42.696;23.494;2022-07-23T14:54:07;8.20;;;1.75;;
10939;SDS011;5522;42.696;23.494;2022-07-23T14:56:34;7.13;;;1.23;;
10939;SDS011;5522;42.696;23.494;2022-07-23T14:59:01;4.20;;;1.23;;
10939;SDS011;5522;42.696;23.494;2022-07-23T15:01:28;8.55;;;1.58;;
10939;SDS011;5522;42.696;23.494;2022-07-23T15:03:55;8.82;;;1.45;;
10939;SDS011;5522;42.696;23.494;2022-07-23T15:06:22;6.35;;;1.02;;
10939;SDS011;5522;42.696;23.494;2022-07-23T15:08:51;4.53;;;1.00;;
10939;SDS011;5522;42.696;23.494;2022-07-23T15:11:18;7.50;;;1.25;;
10939;SDS011;5522;42.696;23.494;2022-07-23T15:13:45;8.88;;;1.30;;
10939;SDS011;5522;42.696;23.494;2022-07-23T15:16:12;2.08;;;1.10;;
10939;SDS011;5522;42.696;23.494;2022-07-23T15:18:40;2.70;;;0.98;;
10939;SDS011;5522;42.696;23.494;2022-07-23T15:21:07;9.38;;;1.73;;
10939;SDS011;5522;42.696;23.494;2022-07-23T15:23:34;5.25;;;0.90;;
10939;SDS011;5522;42.696;23.494;2022-07-23T15:26:04;9.95;;;1.55;;